createdAt,value
2022-11-29T00:01:41.670Z,2.00
2022-11-29T00:04:10.858Z,1.98
2022-11-29T00:06:39.146Z,2.07
2022-11-29T00:09:11.539Z,1.94
2022-11-29T00:11:59.691Z,1.91
2022-11-29T00:14:28.569Z,1.93
2022-11-29T00:17:01.929Z,1.93
2022-11-29T00:19:32.677Z,1.93
2022-11-29T00:22:01.943Z,1.92
2022-11-29T00:24:32.461Z,1.94
2022-11-29T00:27:01.569Z,1.97
2022-11-29T00:29:30.542Z,1.93
2022-11-29T00:31:59.165Z,1.94
2022-11-29T00:34:27.960Z,1.92
2022-11-29T00:36:58.833Z,1.84
2022-11-29T00:39:27.295Z,1.65
2022-11-29T00:41:55.743Z,1.61
2022-11-29T00:44:23.889Z,1.58
2022-11-29T00:46:52.023Z,1.71
2022-11-29T00:49:20.613Z,1.79
2022-11-29T00:51:50.987Z,1.85
2022-11-29T00:54:19.132Z,1.87
2022-11-29T00:56:47.589Z,1.82
2022-11-29T00:59:15.583Z,1.85
2022-11-29T01:01:43.917Z,1.87
2022-11-29T01:04:12.893Z,1.78
2022-11-29T01:06:41.030Z,1.75
2022-11-29T01:09:09.161Z,1.75
2022-11-29T01:11:38.158Z,1.80
2022-11-29T01:14:06.481Z,1.78
2022-11-29T01:16:35.126Z,1.69
2022-11-29T01:19:04.575Z,1.68
2022-11-29T01:21:33.424Z,1.76
2022-11-29T01:24:01.876Z,1.72
2022-11-29T01:26:31.967Z,1.63
2022-11-29T01:29:00.358Z,1.60
2022-11-29T01:31:36.358Z,1.60
2022-11-29T01:34:06.653Z,1.61
2022-11-29T01:36:35.326Z,1.64
2022-11-29T01:39:06.001Z,1.68
2022-11-29T01:41:37.423Z,1.65
2022-11-29T01:44:14.247Z,1.53
2022-11-29T01:46:44.941Z,1.43
2022-11-29T01:49:35.997Z,1.46
2022-11-29T01:52:09.230Z,1.48
2022-11-29T01:54:43.977Z,1.32
2022-11-29T01:57:13.099Z,1.44
2022-11-29T01:59:44.968Z,1.42
2022-11-29T02:02:31.070Z,1.41
2022-11-29T02:05:01.951Z,1.39
2022-11-29T02:07:30.160Z,1.33
2022-11-29T02:09:58.427Z,1.24
2022-11-29T02:12:26.737Z,1.17
2022-11-29T02:15:09.972Z,1.22
2022-11-29T02:17:53.540Z,1.15
2022-11-29T02:20:53.341Z,1.12
2022-11-29T02:23:39.509Z,1.16
2022-11-29T02:26:35.777Z,1.05
2022-11-29T02:29:04.598Z,1.12
2022-11-29T02:31:54.258Z,1.12
2022-11-29T02:34:32.832Z,1.12
2022-11-29T02:37:36.370Z,1.08
2022-11-29T02:40:13.662Z,1.10
2022-11-29T02:43:09.921Z,1.10
2022-11-29T02:45:44.942Z,0.96
2022-11-29T02:48:22.297Z,0.91
2022-11-29T02:51:18.751Z,1.02
2022-11-29T02:53:59.323Z,1.00
2022-11-29T02:56:59.297Z,1.05
2022-11-29T02:59:59.769Z,1.05
2022-11-29T03:02:48.293Z,1.02
2022-11-29T03:05:45.197Z,0.98
2022-11-29T03:08:43.143Z,1.02
2022-11-29T03:11:14.059Z,1.03
2022-11-29T03:14:03.416Z,1.02
2022-11-29T03:16:46.313Z,1.00
2022-11-29T03:19:23.941Z,0.96
2022-11-29T03:22:24.852Z,0.97
2022-11-29T03:25:07.292Z,1.00
2022-11-29T03:27:43.783Z,0.88
2022-11-29T03:30:18.372Z,0.99
2022-11-29T03:32:52.257Z,0.97
2022-11-29T03:35:54.527Z,0.89
2022-11-29T03:38:32.924Z,0.88
2022-11-29T03:41:10.327Z,0.96
2022-11-29T03:44:04.063Z,0.89
2022-11-29T03:46:42.538Z,0.87
2022-11-29T03:49:28.666Z,0.81
2022-11-29T03:52:18.833Z,0.78
2022-11-29T03:54:53.037Z,0.78
2022-11-29T03:57:34.364Z,0.80
2022-11-29T04:00:13.115Z,0.78
2022-11-29T04:03:16.682Z,0.77
2022-11-29T04:06:17.352Z,0.75
2022-11-29T04:08:48.737Z,0.78
2022-11-29T04:11:55.038Z,0.78
2022-11-29T04:15:01.462Z,0.80
2022-11-29T04:17:51.864Z,0.73
2022-11-29T04:20:23.428Z,0.76
2022-11-29T04:23:03.649Z,0.68
2022-11-29T04:25:56.944Z,0.71
2022-11-29T04:28:49.969Z,0.70
2022-11-29T04:31:46.559Z,0.61
2022-11-29T04:34:20.438Z,0.60
2022-11-29T04:37:39.544Z,0.64
2022-11-29T04:40:36.678Z,0.73
2022-11-29T04:43:25.511Z,0.67
2022-11-29T04:45:56.322Z,0.74
2022-11-29T04:48:27.343Z,0.62
2022-11-29T04:51:27.795Z,0.34
2022-11-29T04:54:31.353Z,0.50
2022-11-29T04:57:06.292Z,0.50
2022-11-29T04:59:44.544Z,0.51
2022-11-29T05:02:14.218Z,0.52
2022-11-29T05:04:53.593Z,0.56
2022-11-29T05:07:43.196Z,0.53
2022-11-29T05:10:39.609Z,0.42
2022-11-29T05:13:53.194Z,0.49
2022-11-29T05:16:46.900Z,0.55
2022-11-29T05:19:26.056Z,0.43
2022-11-29T05:22:12.536Z,0.20
2022-11-29T05:24:40.603Z,0.30
2022-11-29T05:27:24.274Z,0.26
2022-11-29T05:30:04.358Z,0.30
2022-11-29T05:32:38.355Z,0.12
2022-11-29T05:35:27.672Z,0.02
2022-11-29T05:38:39.187Z,0.13
2022-11-29T05:41:48.136Z,0.18
2022-11-29T05:44:25.539Z,0.11
2022-11-29T05:47:01.228Z,0.24
2022-11-29T05:49:51.622Z,0.29
2022-11-29T05:52:39.233Z,0.22
2022-11-29T05:55:13.961Z,0.07
2022-11-29T05:58:04.538Z,-0.01
2022-11-29T06:00:49.032Z,-0.06
2022-11-29T06:03:30.556Z,0.15
2022-11-29T06:06:40.481Z,0.13
2022-11-29T06:09:23.147Z,0.13
2022-11-29T06:11:57.842Z,0.04
2022-11-29T06:14:41.534Z,0.06
2022-11-29T06:17:55.300Z,0.17
2022-11-29T06:20:35.099Z,0.24
2022-11-29T06:23:24.951Z,0.30
2022-11-29T06:26:18.202Z,0.15
2022-11-29T06:29:02.270Z,-0.07
2022-11-29T06:31:43.406Z,0.15
2022-11-29T06:34:17.535Z,0.15
2022-11-29T06:36:53.771Z,0.27
2022-11-29T06:39:22.289Z,0.14
2022-11-29T06:41:50.781Z,0.18
2022-11-29T06:44:19.058Z,-0.02
2022-11-29T06:47:09.310Z,0.16
2022-11-29T06:49:57.895Z,0.29
2022-11-29T06:52:59.908Z,0.37
2022-11-29T06:55:39.918Z,0.36
2022-11-29T06:58:36.029Z,0.39
2022-11-29T07:01:15.179Z,0.49
2022-11-29T07:03:43.385Z,0.48
2022-11-29T07:06:18.587Z,0.48
2022-11-29T07:08:47.377Z,0.46
2022-11-29T07:11:16.524Z,0.44
2022-11-29T07:13:44.936Z,0.42
2022-11-29T07:16:36.655Z,0.52
2022-11-29T07:19:59.115Z,0.53
2022-11-29T07:22:52.856Z,0.44
2022-11-29T07:25:30.184Z,0.32
2022-11-29T07:28:16.411Z,0.46
2022-11-29T07:31:07.531Z,0.53
2022-11-29T07:33:44.166Z,0.57
2022-11-29T07:36:18.379Z,0.71
2022-11-29T07:39:01.581Z,0.65
2022-11-29T07:41:54.873Z,0.66
2022-11-29T07:44:41.870Z,0.67
2022-11-29T07:47:10.266Z,0.68
2022-11-29T07:49:38.297Z,0.74
2022-11-29T07:52:06.888Z,0.77
2022-11-29T07:54:35.188Z,0.67
2022-11-29T07:57:03.397Z,0.41
2022-11-29T07:59:31.821Z,0.42
2022-11-29T08:02:00.219Z,0.42
2022-11-29T08:04:28.538Z,0.50
2022-11-29T08:07:00.247Z,0.45
2022-11-29T08:09:28.560Z,0.54
2022-11-29T08:11:57.243Z,0.49
2022-11-29T08:14:25.569Z,0.58
2022-11-29T08:16:53.974Z,0.69
2022-11-29T08:19:21.965Z,0.58
2022-11-29T08:21:51.597Z,0.55
2022-11-29T08:24:20.218Z,0.69
2022-11-29T08:26:48.426Z,0.79
2022-11-29T08:29:16.715Z,0.79
2022-11-29T08:31:45.493Z,0.85
2022-11-29T08:34:13.505Z,0.87
2022-11-29T08:36:41.563Z,0.89
2022-11-29T08:39:09.924Z,0.95
2022-11-29T08:41:38.252Z,1.01
2022-11-29T08:44:06.842Z,1.06
2022-11-29T08:46:54.358Z,1.06
2022-11-29T08:49:22.535Z,0.93
2022-11-29T08:52:16.966Z,0.99
2022-11-29T08:54:45.469Z,1.10
2022-11-29T08:57:39.370Z,1.16
2022-11-29T09:00:02.485Z,1.11
2022-11-29T09:02:30.979Z,0.97
2022-11-29T09:04:58.985Z,0.80
2022-11-29T09:07:27.073Z,0.91
2022-11-29T09:09:55.571Z,0.99
2022-11-29T09:12:23.616Z,0.93
2022-11-29T09:14:51.820Z,0.86
2022-11-29T09:17:20.096Z,0.93
2022-11-29T09:19:48.411Z,0.91
2022-11-29T09:22:17.035Z,1.01
2022-11-29T09:24:47.160Z,0.97
2022-11-29T09:27:15.885Z,0.86
2022-11-29T09:29:44.420Z,0.83
2022-11-29T09:32:12.743Z,0.88
2022-11-29T09:34:42.412Z,0.91
2022-11-29T09:37:10.792Z,1.10
2022-11-29T09:39:40.303Z,1.10
2022-11-29T09:42:24.073Z,1.23
2022-11-29T09:45:27.452Z,1.04
2022-11-29T09:48:14.534Z,1.18
2022-11-29T09:50:54.071Z,1.16
2022-11-29T09:53:33.023Z,1.00
2022-11-29T09:56:18.515Z,1.05
2022-11-29T09:59:00.441Z,1.18
2022-11-29T10:01:33.407Z,0.90
2022-11-29T10:04:06.600Z,1.02
2022-11-29T10:06:40.834Z,1.15
2022-11-29T10:09:33.372Z,1.14
2022-11-29T10:12:07.565Z,1.13
2022-11-29T10:14:57.183Z,1.09
2022-11-29T10:17:33.883Z,1.18
2022-11-29T10:20:17.202Z,1.16
2022-11-29T10:22:59.449Z,0.97
2022-11-29T10:25:42.403Z,1.12
2022-11-29T10:28:16.326Z,1.14
2022-11-29T10:30:45.188Z,1.19
2022-11-29T10:33:25.483Z,1.14
2022-11-29T10:35:59.340Z,1.18
2022-11-29T10:38:31.654Z,1.25
2022-11-29T10:41:10.211Z,1.39
2022-11-29T10:43:38.656Z,1.33
2022-11-29T10:46:15.464Z,1.27
2022-11-29T10:48:43.662Z,1.19
2022-11-29T10:51:17.659Z,1.02
2022-11-29T10:53:46.663Z,1.12
2022-11-29T10:56:29.811Z,1.25
2022-11-29T10:59:05.162Z,1.11
2022-11-29T11:01:43.322Z,1.31
2022-11-29T11:04:33.984Z,1.36
2022-11-29T11:07:05.270Z,1.41
2022-11-29T11:09:35.688Z,1.50
2022-11-29T11:12:19.220Z,1.56
2022-11-29T11:14:47.685Z,1.33
2022-11-29T11:17:33.030Z,1.39
2022-11-29T11:20:22.826Z,1.34
2022-11-29T11:23:27.681Z,1.19
2022-11-29T11:26:02.257Z,1.10
2022-11-29T11:28:36.325Z,1.00
2022-11-29T11:31:08.450Z,1.21
2022-11-29T11:33:44.710Z,1.36
2022-11-29T11:36:14.192Z,1.37
2022-11-29T11:38:55.199Z,1.28
2022-11-29T11:41:52.037Z,1.26
2022-11-29T11:44:48.461Z,1.26
2022-11-29T11:47:27.322Z,1.12
2022-11-29T11:50:02.409Z,1.33
2022-11-29T11:52:39.869Z,1.32
2022-11-29T11:55:21.265Z,1.08
2022-11-29T11:58:03.384Z,1.23
2022-11-29T12:03:57.611Z,1.42
2022-11-29T12:06:25.842Z,1.34
2022-11-29T12:09:02.377Z,1.47
2022-11-29T12:11:51.274Z,1.43
2022-11-29T12:14:49.059Z,1.25
2022-11-29T12:17:29.875Z,1.23
2022-11-29T12:20:22.512Z,1.36
2022-11-29T12:22:53.531Z,1.52
2022-11-29T12:25:27.229Z,1.39
2022-11-29T12:27:55.520Z,1.33
2022-11-29T12:30:24.105Z,1.35
2022-11-29T12:33:04.049Z,1.28
2022-11-29T12:35:58.747Z,1.24
2022-11-29T12:39:02.361Z,1.22
2022-11-29T12:42:05.679Z,1.25
2022-11-29T12:45:01.369Z,1.34
2022-11-29T12:47:52.269Z,1.50
2022-11-29T12:50:20.460Z,1.61
2022-11-29T12:53:09.990Z,1.59
2022-11-29T12:55:47.103Z,1.65
2022-11-29T12:58:33.024Z,1.56
2022-11-29T13:01:20.426Z,1.65
2022-11-29T13:04:03.461Z,1.66
2022-11-29T13:07:03.700Z,1.85
2022-11-29T13:10:11.458Z,1.87
2022-11-29T13:12:47.214Z,1.99
2022-11-29T13:15:20.912Z,1.92
2022-11-29T13:18:02.721Z,1.88
2022-11-29T13:20:38.708Z,1.74
2022-11-29T13:23:16.327Z,1.84
2022-11-29T13:25:50.873Z,1.89
2022-11-29T13:28:28.323Z,1.82
2022-11-29T13:31:09.565Z,1.67
2022-11-29T13:33:59.098Z,1.70
2022-11-29T13:37:21.410Z,1.83
2022-11-29T13:40:01.190Z,1.87
2022-11-29T13:42:59.954Z,1.95
2022-11-29T13:45:48.462Z,1.93
2022-11-29T13:48:33.889Z,2.00
2022-11-29T13:51:29.496Z,1.93
2022-11-29T13:54:02.229Z,1.91
2022-11-29T13:56:48.005Z,1.94
2022-11-29T13:59:22.488Z,1.81
2022-11-29T14:01:54.272Z,1.68
2022-11-29T14:04:34.537Z,1.62
2022-11-29T14:07:16.732Z,1.58
2022-11-29T14:09:56.912Z,1.62
2022-11-29T14:12:37.253Z,1.64
2022-11-29T14:15:11.300Z,1.64
2022-11-29T14:18:01.333Z,1.68
2022-11-29T14:20:29.838Z,1.70
2022-11-29T14:23:04.379Z,1.75
2022-11-29T14:25:51.204Z,1.77
2022-11-29T14:28:22.000Z,1.76
2022-11-29T14:30:55.424Z,1.65
2022-11-29T14:33:39.124Z,1.66
2022-11-29T14:36:19.340Z,1.59
2022-11-29T14:39:25.542Z,1.53
2022-11-29T14:42:24.118Z,1.47
2022-11-29T14:44:56.156Z,1.43
2022-11-29T14:47:32.948Z,1.31
2022-11-29T14:50:07.570Z,1.37
2022-11-29T14:52:40.699Z,1.25
2022-11-29T14:55:14.830Z,1.26
2022-11-29T14:57:54.722Z,1.14
2022-11-29T15:00:34.890Z,1.12
2022-11-29T15:03:10.177Z,0.96
2022-11-29T15:05:43.036Z,0.95
2022-11-29T15:08:14.980Z,0.93
2022-11-29T15:10:51.920Z,0.78
2022-11-29T15:13:27.567Z,0.74
2022-11-29T15:16:26.401Z,0.77
2022-11-29T15:19:03.685Z,0.67
2022-11-29T15:21:43.885Z,0.61
2022-11-29T15:24:14.873Z,0.59
2022-11-29T15:26:55.787Z,0.52
2022-11-29T15:29:25.480Z,0.49
2022-11-29T15:31:59.259Z,0.52
2022-11-29T15:34:32.480Z,0.49
2022-11-29T15:37:01.176Z,0.49
2022-11-29T15:39:35.564Z,0.46
2022-11-29T15:42:15.501Z,0.48
2022-11-29T15:44:48.612Z,0.45
2022-11-29T15:47:26.790Z,0.40
2022-11-29T15:49:55.571Z,0.37
2022-11-29T15:52:38.369Z,0.34
2022-11-29T15:55:13.905Z,0.37
2022-11-29T15:57:45.908Z,0.31
2022-11-29T16:00:21.608Z,0.36
2022-11-29T16:02:52.662Z,0.31
2022-11-29T16:05:23.538Z,0.31
2022-11-29T16:08:17.376Z,0.23
2022-11-29T16:10:53.057Z,0.20
2022-11-29T16:13:38.832Z,0.19
2022-11-29T16:16:07.609Z,0.25
2022-11-29T16:18:37.706Z,0.27
2022-11-29T16:21:07.381Z,0.29
2022-11-29T16:23:38.185Z,0.37
2022-11-29T16:26:20.684Z,0.33
2022-11-29T16:28:51.750Z,0.35
2022-11-29T16:31:23.331Z,0.25
2022-11-29T16:33:52.628Z,0.17
2022-11-29T16:36:24.265Z,0.29
2022-11-29T16:39:04.538Z,0.38
2022-11-29T16:41:35.270Z,0.32
2022-11-29T16:44:06.116Z,0.26
2022-11-29T16:46:39.733Z,0.21
2022-11-29T16:49:32.136Z,0.15
2022-11-29T16:52:00.957Z,0.26
2022-11-29T16:54:35.541Z,0.41
2022-11-29T16:57:07.066Z,0.48
2022-11-29T16:59:38.522Z,0.48
2022-11-29T17:02:11.584Z,0.51
2022-11-29T17:04:40.690Z,0.48
2022-11-29T17:07:26.815Z,0.41
2022-11-29T17:09:56.542Z,0.30
2022-11-29T17:12:24.645Z,0.14
2022-11-29T17:14:53.274Z,0.17
2022-11-29T17:17:21.821Z,0.27
2022-11-29T17:19:49.869Z,0.33
2022-11-29T17:22:18.234Z,0.29
2022-11-29T17:24:48.524Z,0.37
2022-11-29T17:27:16.815Z,0.44
2022-11-29T17:29:45.032Z,0.47
2022-11-29T17:32:13.774Z,0.50
2022-11-29T17:34:41.971Z,0.52
2022-11-29T17:37:10.270Z,0.49
2022-11-29T17:39:38.765Z,0.54
2022-11-29T17:42:07.088Z,0.56
2022-11-29T17:44:35.781Z,0.64
2022-11-29T17:47:06.645Z,0.57
2022-11-29T17:49:34.774Z,0.66
2022-11-29T17:52:03.481Z,0.71
2022-11-29T17:54:36.061Z,0.75
2022-11-29T17:57:04.602Z,0.84
2022-11-29T17:59:33.108Z,0.83
2022-11-29T18:02:02.253Z,0.81
2022-11-29T18:04:30.986Z,0.87
2022-11-29T18:06:59.134Z,0.88
2022-11-29T18:09:28.326Z,0.96
2022-11-29T18:11:56.717Z,0.89
2022-11-29T18:14:28.392Z,0.88
2022-11-29T18:16:56.922Z,0.81
2022-11-29T18:19:25.891Z,0.79
2022-11-29T18:21:54.051Z,0.87
2022-11-29T18:24:22.495Z,0.86
2022-11-29T18:26:50.830Z,0.83
2022-11-29T18:29:23.509Z,0.68
2022-11-29T18:31:51.890Z,0.66
2022-11-29T18:34:20.102Z,0.82
2022-11-29T18:36:49.520Z,0.91
2022-11-29T18:39:20.355Z,0.91
2022-11-29T18:41:50.009Z,1.01
2022-11-29T18:44:21.852Z,1.07
2022-11-29T18:46:50.053Z,0.97
2022-11-29T18:49:18.780Z,0.99
2022-11-29T18:51:49.180Z,1.04
2022-11-29T18:54:18.503Z,1.11
2022-11-29T18:56:50.224Z,1.02
2022-11-29T18:59:18.461Z,0.80
2022-11-29T19:01:48.397Z,0.80
2022-11-29T19:04:19.599Z,0.81
2022-11-29T19:06:48.649Z,0.85
2022-11-29T19:09:21.378Z,0.90
2022-11-29T19:11:50.989Z,0.94
2022-11-29T19:14:19.591Z,0.96
2022-11-29T19:16:49.886Z,1.10
2022-11-29T19:19:21.372Z,1.09
2022-11-29T19:21:50.400Z,1.09
2022-11-29T19:24:19.384Z,1.14
2022-11-29T19:26:49.735Z,1.09
2022-11-29T19:29:18.009Z,-1.21
2022-11-29T19:31:46.435Z,1.16
2022-11-29T19:34:14.868Z,1.22
2022-11-29T19:36:44.156Z,1.21
2022-11-29T19:39:15.757Z,1.20
2022-11-29T19:41:46.659Z,1.19
2022-11-29T19:44:15.154Z,1.25
2022-11-29T19:46:46.881Z,1.38
2022-11-29T19:49:20.447Z,1.40
2022-11-29T19:51:48.901Z,1.29
2022-11-29T19:54:17.572Z,1.04
2022-11-29T19:56:45.926Z,0.92
2022-11-29T19:59:15.005Z,0.89
2022-11-29T20:01:43.897Z,0.99
2022-11-29T20:04:13.626Z,0.97
2022-11-29T20:06:42.391Z,1.04
2022-11-29T20:09:13.724Z,1.14
2022-11-29T20:11:43.418Z,1.21
2022-11-29T20:14:12.319Z,1.23
2022-11-29T20:16:46.891Z,1.33
2022-11-29T20:19:17.780Z,1.44
2022-11-29T20:21:49.005Z,1.56
2022-11-29T20:24:19.557Z,1.59
2022-11-29T20:26:48.696Z,1.59
2022-11-29T20:29:17.564Z,1.56
2022-11-29T20:31:50.785Z,1.50
2022-11-29T20:34:21.061Z,1.56
2022-11-29T20:36:49.600Z,1.55
2022-11-29T20:39:52.436Z,1.48
2022-11-29T20:42:39.938Z,1.43
2022-11-29T20:45:12.211Z,1.31
2022-11-29T20:47:41.134Z,1.36
2022-11-29T20:50:22.978Z,1.32
2022-11-29T20:53:15.104Z,1.20
2022-11-29T20:55:48.095Z,1.24
2022-11-29T20:58:18.267Z,1.16
2022-11-29T21:00:47.287Z,1.22
2022-11-29T21:03:16.491Z,1.12
2022-11-29T21:05:45.359Z,1.14
2022-11-29T21:08:15.347Z,1.08
2022-11-29T21:10:43.590Z,1.09
2022-11-29T21:13:13.394Z,1.06
2022-11-29T21:15:42.751Z,1.16
2022-11-29T21:18:37.153Z,1.11
2022-11-29T21:21:20.546Z,1.15
2022-11-29T21:24:19.099Z,1.20
2022-11-29T21:26:51.590Z,1.35
2022-11-29T21:29:22.199Z,1.49
2022-11-29T21:31:53.210Z,1.56
2022-11-29T21:34:22.037Z,1.65
2022-11-29T21:36:59.097Z,1.75
2022-11-29T21:39:33.751Z,1.73
2022-11-29T21:42:02.816Z,1.68
2022-11-29T21:44:30.887Z,1.68
2022-11-29T21:46:58.949Z,1.73
2022-11-29T21:49:27.564Z,1.81
2022-11-29T21:51:57.669Z,1.78
2022-11-29T21:54:25.960Z,1.79
2022-11-29T21:56:54.735Z,1.72
2022-11-29T21:59:24.875Z,1.73
2022-11-29T22:01:53.032Z,1.70
2022-11-29T22:04:22.088Z,1.71
2022-11-29T22:06:50.178Z,1.66
2022-11-29T22:09:18.261Z,1.49
2022-11-29T22:11:46.841Z,1.57
2022-11-29T22:14:16.246Z,1.68
2022-11-29T22:16:54.156Z,1.73
2022-11-29T22:19:25.093Z,1.81
2022-11-29T22:22:01.201Z,1.83
2022-11-29T22:24:32.186Z,1.85
2022-11-29T22:27:01.615Z,1.89
2022-11-29T22:29:30.857Z,1.91
2022-11-29T22:31:59.615Z,1.92
2022-11-29T22:34:28.227Z,1.86
2022-11-29T22:36:56.621Z,1.77
2022-11-29T22:39:24.961Z,1.85
2022-11-29T22:41:54.942Z,1.86
2022-11-29T22:44:24.786Z,1.93
2022-11-29T22:46:53.176Z,1.96
2022-11-29T22:49:21.443Z,1.94
2022-11-29T22:51:49.843Z,1.89
2022-11-29T22:54:18.370Z,1.91
2022-11-29T22:56:46.513Z,1.97
2022-11-29T22:59:15.351Z,2.00
2022-11-29T23:01:44.207Z,2.02
2022-11-29T23:04:14.041Z,2.07
2022-11-29T23:06:44.535Z,2.13
2022-11-29T23:09:17.082Z,2.20
2022-11-29T23:11:46.659Z,2.26
2022-11-29T23:14:14.689Z,2.30
2022-11-29T23:16:43.011Z,2.27
2022-11-29T23:19:12.113Z,2.34
2022-11-29T23:21:41.367Z,2.40
2022-11-29T23:24:09.612Z,2.40
2022-11-29T23:26:43.614Z,2.44
2022-11-29T23:29:19.374Z,2.48
2022-11-29T23:31:49.166Z,2.48
2022-11-29T23:34:17.326Z,2.44
2022-11-29T23:36:49.775Z,2.51
2022-11-29T23:39:21.761Z,2.53
2022-11-29T23:41:49.775Z,2.50
2022-11-29T23:44:17.840Z,2.46
2022-11-29T23:46:46.301Z,2.43
2022-11-29T23:49:14.437Z,2.18
2022-11-29T23:51:43.221Z,2.16
2022-11-29T23:54:11.740Z,2.14
2022-11-29T23:56:39.857Z,2.10
2022-11-29T23:59:07.970Z,2.06
